Terminal Aerodrome Forecast
Issued by NWS

Home | Current Version | Previous Version | Text Only | Print | Product List | Glossary On
Versions: 1 2 3 4 5 6 7 8 9 10 11 12 13 14
000
FTUS43 KMQT 291731
TAFIWD
TAF
KIWD 291731Z 2918/3018 25016G25KT P6SM BKN050
     FM292300 26014G23KT P6SM SCT050
     FM300200 26012G18KT P6SM FEW100
     FM301400 28014G21KT P6SM SCT100
      AMD LTD TO CLD VIS AND WIND=

USA.gov is the U.S. government's official web portal to all federal, state and local government web resources and services.